sensor_id;sensor_type;location;lat;lon;timestamp;pressure;altitude;pressure_sealevel;temperature;humidity
75629;BME280;64213;46.452;16.994;2024-02-21T00:02:59;100884.09;;;5.64;90.28
75629;BME280;64213;46.452;16.994;2024-02-21T00:06:04;100876.41;;;5.58;90.83
75629;BME280;64213;46.452;16.994;2024-02-21T00:09:06;100874.50;;;5.63;90.81
75629;BME280;64213;46.452;16.994;2024-02-21T00:12:09;100876.22;;;5.64;91.06
75629;BME280;64213;46.452;16.994;2024-02-21T00:15:11;100873.50;;;5.67;90.80
75629;BME280;64213;46.452;16.994;2024-02-21T00:18:14;100871.75;;;5.68;91.14
75629;BME280;64213;46.452;16.994;2024-02-21T00:21:17;100872.56;;;5.70;90.75
75629;BME280;64213;46.452;16.994;2024-02-21T00:24:20;100870.00;;;5.68;90.17
75629;BME280;64213;46.452;16.994;2024-02-21T00:27:23;100868.25;;;5.67;90.12
75629;BME280;64213;46.452;16.994;2024-02-21T00:30:26;100869.22;;;5.65;89.96
75629;BME280;64213;46.452;16.994;2024-02-21T00:33:28;100875.47;;;5.60;90.16
75629;BME280;64213;46.452;16.994;2024-02-21T00:36:31;100876.50;;;5.55;90.34
75629;BME280;64213;46.452;16.994;2024-02-21T00:39:33;100867.06;;;5.49;90.24
75629;BME280;64213;46.452;16.994;2024-02-21T00:42:36;100868.53;;;5.30;90.33
75629;BME280;64213;46.452;16.994;2024-02-21T00:45:38;100864.31;;;5.24;90.20
75629;BME280;64213;46.452;16.994;2024-02-21T00:48:41;100867.13;;;5.17;89.77
75629;BME280;64213;46.452;16.994;2024-02-21T00:51:43;100871.59;;;5.13;89.82
75629;BME280;64213;46.452;16.994;2024-02-21T00:54:46;100864.56;;;5.15;89.95
75629;BME280;64213;46.452;16.994;2024-02-21T00:57:55;100857.72;;;5.09;89.95
75629;BME280;64213;46.452;16.994;2024-02-21T01:00:57;100857.81;;;5.06;90.47
75629;BME280;64213;46.452;16.994;2024-02-21T01:04:00;100860.34;;;5.09;90.31
75629;BME280;64213;46.452;16.994;2024-02-21T01:07:02;100854.31;;;5.07;90.65
75629;BME280;64213;46.452;16.994;2024-02-21T01:10:06;100859.44;;;5.10;91.14
75629;BME280;64213;46.452;16.994;2024-02-21T01:13:08;100860.47;;;5.05;91.03
75629;BME280;64213;46.452;16.994;2024-02-21T01:16:11;100853.50;;;5.04;90.64
75629;BME280;64213;46.452;16.994;2024-02-21T01:19:13;100853.50;;;5.04;90.43
75629;BME280;64213;46.452;16.994;2024-02-21T01:22:16;100850.97;;;5.01;90.95
75629;BME280;64213;46.452;16.994;2024-02-21T01:25:20;100850.03;;;5.03;90.70
75629;BME280;64213;46.452;16.994;2024-02-21T01:28:22;100853.66;;;4.98;91.39
75629;BME280;64213;46.452;16.994;2024-02-21T01:31:25;100851.34;;;4.88;91.94
75629;BME280;64213;46.452;16.994;2024-02-21T01:34:27;100846.13;;;4.87;92.06
75629;BME280;64213;46.452;16.994;2024-02-21T01:37:34;100846.34;;;4.79;92.53
75629;BME280;64213;46.452;16.994;2024-02-21T01:40:36;100839.28;;;4.81;92.70
75629;BME280;64213;46.452;16.994;2024-02-21T01:43:39;100842.88;;;4.79;93.00
75629;BME280;64213;46.452;16.994;2024-02-21T01:46:42;100838.50;;;4.78;92.88
75629;BME280;64213;46.452;16.994;2024-02-21T01:49:45;100836.00;;;4.73;93.40
75629;BME280;64213;46.452;16.994;2024-02-21T01:52:49;100824.59;;;4.76;94.77
75629;BME280;64213;46.452;16.994;2024-02-21T01:55:52;100832.53;;;4.73;94.83
75629;BME280;64213;46.452;16.994;2024-02-21T01:58:55;100825.53;;;4.73;95.27
75629;BME280;64213;46.452;16.994;2024-02-21T02:01:58;100837.09;;;4.66;96.05
75629;BME280;64213;46.452;16.994;2024-02-21T02:05:02;100831.13;;;4.59;96.23
75629;BME280;64213;46.452;16.994;2024-02-21T02:08:06;100825.84;;;4.61;96.73
75629;BME280;64213;46.452;16.994;2024-02-21T02:11:08;100834.56;;;4.63;96.70
75629;BME280;64213;46.452;16.994;2024-02-21T02:14:11;100834.47;;;4.66;96.82
75629;BME280;64213;46.452;16.994;2024-02-21T02:17:13;100833.56;;;4.67;96.93
75629;BME280;64213;46.452;16.994;2024-02-21T02:20:16;100824.78;;;4.68;96.85
75629;BME280;64213;46.452;16.994;2024-02-21T02:26:23;100818.59;;;4.71;94.91
75629;BME280;64213;46.452;16.994;2024-02-21T02:29:26;100815.06;;;4.73;95.05
75629;BME280;64213;46.452;16.994;2024-02-21T02:32:28;100809.81;;;4.73;94.82
75629;BME280;64213;46.452;16.994;2024-02-21T02:39:29;100806.34;;;4.71;94.33
75629;BME280;64213;46.452;16.994;2024-02-21T02:46:32;100808.97;;;4.73;93.87
75629;BME280;64213;46.452;16.994;2024-02-21T02:49:34;100808.88;;;4.76;93.48
75629;BME280;64213;46.452;16.994;2024-02-21T02:52:37;100807.19;;;4.73;93.85
75629;BME280;64213;46.452;16.994;2024-02-21T02:55:40;100798.50;;;4.71;93.52
75629;BME280;64213;46.452;16.994;2024-02-21T02:58:43;100795.94;;;4.70;93.64
75629;BME280;64213;46.452;16.994;2024-02-21T03:01:46;100802.03;;;4.70;94.22
75629;BME280;64213;46.452;16.994;2024-02-21T03:04:49;100804.22;;;4.54;94.93
75629;BME280;64213;46.452;16.994;2024-02-21T03:07:51;100805.53;;;4.38;96.28
75629;BME280;64213;46.452;16.994;2024-02-21T03:10:54;100802.38;;;4.24;97.08
75629;BME280;64213;46.452;16.994;2024-02-21T03:13:56;100812.84;;;4.25;97.23
75629;BME280;64213;46.452;16.994;2024-02-21T03:16:59;100798.06;;;4.23;97.60
75629;BME280;64213;46.452;16.994;2024-02-21T03:20:02;100800.69;;;4.21;97.79
75629;BME280;64213;46.452;16.994;2024-02-21T03:23:07;100806.75;;;4.23;97.64
75629;BME280;64213;46.452;16.994;2024-02-21T03:26:09;100812.91;;;4.22;97.26
75629;BME280;64213;46.452;16.994;2024-02-21T03:29:12;100806.75;;;4.23;97.03
75629;BME280;64213;46.452;16.994;2024-02-21T03:36:24;100806.59;;;4.29;97.78
75629;BME280;64213;46.452;16.994;2024-02-21T03:39:26;100808.22;;;4.35;97.29
75629;BME280;64213;46.452;16.994;2024-02-21T03:42:29;100800.38;;;4.33;97.51
75629;BME280;64213;46.452;16.994;2024-02-21T03:45:33;100805.59;;;4.35;97.09
75629;BME280;64213;46.452;16.994;2024-02-21T03:48:36;100805.53;;;4.36;96.90
75629;BME280;64213;46.452;16.994;2024-02-21T03:51:39;100813.37;;;4.38;96.51
75629;BME280;64213;46.452;16.994;2024-02-21T03:54:41;100804.69;;;4.36;97.17
75629;BME280;64213;46.452;16.994;2024-02-21T03:57:44;100805.69;;;4.30;97.46
75629;BME280;64213;46.452;16.994;2024-02-21T04:00:46;100801.59;;;4.22;97.87
75629;BME280;64213;46.452;16.994;2024-02-21T04:03:49;100794.66;;;4.19;98.47
75629;BME280;64213;46.452;16.994;2024-02-21T04:06:52;100796.44;;;4.17;98.17
75629;BME280;64213;46.452;16.994;2024-02-21T04:09:54;100796.56;;;4.12;97.80
75629;BME280;64213;46.452;16.994;2024-02-21T04:12:58;100787.03;;;4.10;98.59
75629;BME280;64213;46.452;16.994;2024-02-21T04:16:00;100788.94;;;4.03;98.20
75629;BME280;64213;46.452;16.994;2024-02-21T04:19:03;100788.25;;;3.96;99.50
75629;BME280;64213;46.452;16.994;2024-02-21T04:22:06;100783.25;;;3.86;99.72
75629;BME280;64213;46.452;16.994;2024-02-21T04:25:11;100779.84;;;3.82;100.00
75629;BME280;64213;46.452;16.994;2024-02-21T04:28:21;100787.78;;;3.79;100.00
75629;BME280;64213;46.452;16.994;2024-02-21T04:31:26;100792.28;;;3.74;100.00
75629;BME280;64213;46.452;16.994;2024-02-21T04:34:30;100785.38;;;3.71;100.00
75629;BME280;64213;46.452;16.994;2024-02-21T04:37:32;100782.87;;;3.65;100.00
75629;BME280;64213;46.452;16.994;2024-02-21T04:40:36;100781.34;;;3.57;100.00
75629;BME280;64213;46.452;16.994;2024-02-21T04:43:41;100784.94;;;3.53;100.00
75629;BME280;64213;46.452;16.994;2024-02-21T04:46:45;100778.84;;;3.52;100.00
75629;BME280;64213;46.452;16.994;2024-02-21T04:49:47;100777.03;;;3.54;100.00
75629;BME280;64213;46.452;16.994;2024-02-21T04:52:51;100781.34;;;3.57;100.00
75629;BME280;64213;46.452;16.994;2024-02-21T04:55:53;100786.50;;;3.60;100.00
75629;BME280;64213;46.452;16.994;2024-02-21T04:58:56;100781.28;;;3.60;100.00
75629;BME280;64213;46.452;16.994;2024-02-21T05:01:59;100783.81;;;3.63;100.00
75629;BME280;64213;46.452;16.994;2024-02-21T05:05:02;100789.03;;;3.64;100.00
75629;BME280;64213;46.452;16.994;2024-02-21T05:08:05;100798.59;;;3.65;100.00
75629;BME280;64213;46.452;16.994;2024-02-21T05:11:07;100795.03;;;3.68;100.00
75629;BME280;64213;46.452;16.994;2024-02-21T05:14:10;100783.78;;;3.64;100.00
75629;BME280;64213;46.452;16.994;2024-02-21T05:17:13;100783.94;;;3.58;100.00
75629;BME280;64213;46.452;16.994;2024-02-21T05:20:16;100782.25;;;3.54;100.00
75629;BME280;64213;46.452;16.994;2024-02-21T05:23:19;100786.69;;;3.52;100.00
75629;BME280;64213;46.452;16.994;2024-02-21T05:26:24;100795.44;;;3.51;100.00
75629;BME280;64213;46.452;16.994;2024-02-21T05:29:27;100801.41;;;3.58;100.00
75629;BME280;64213;46.452;16.994;2024-02-21T05:32:30;100802.25;;;3.58;100.00
75629;BME280;64213;46.452;16.994;2024-02-21T05:35:33;100809.16;;;3.61;100.00
75629;BME280;64213;46.452;16.994;2024-02-21T05:38:36;100810.81;;;3.65;100.00
75629;BME280;64213;46.452;16.994;2024-02-21T05:41:39;100807.34;;;3.63;99.59
75629;BME280;64213;46.452;16.994;2024-02-21T05:44:41;100803.88;;;3.62;99.54
75629;BME280;64213;46.452;16.994;2024-02-21T05:51:43;100805.56;;;3.65;99.24
75629;BME280;64213;46.452;16.994;2024-02-21T05:54:45;100805.53;;;3.66;99.23
75629;BME280;64213;46.452;16.994;2024-02-21T05:57:53;100808.94;;;3.70;98.96
75629;BME280;64213;46.452;16.994;2024-02-21T06:00:57;100807.16;;;3.72;98.82
75629;BME280;64213;46.452;16.994;2024-02-21T06:04:00;100813.25;;;3.72;98.48
75629;BME280;64213;46.452;16.994;2024-02-21T06:07:03;100810.66;;;3.71;98.53
75629;BME280;64213;46.452;16.994;2024-02-21T06:10:07;100807.22;;;3.69;98.26
75629;BME280;64213;46.452;16.994;2024-02-21T06:13:09;100810.66;;;3.71;97.88
75629;BME280;64213;46.452;16.994;2024-02-21T06:16:12;100814.91;;;3.77;97.69
75629;BME280;64213;46.452;16.994;2024-02-21T06:19:15;100812.16;;;3.81;97.08
75629;BME280;64213;46.452;16.994;2024-02-21T06:22:17;100811.25;;;3.82;96.78
75629;BME280;64213;46.452;16.994;2024-02-21T06:25:20;100824.28;;;3.85;96.59
75629;BME280;64213;46.452;16.994;2024-02-21T06:28:22;100822.50;;;3.87;96.56
75629;BME280;64213;46.452;16.994;2024-02-21T06:31:25;100820.72;;;3.88;96.50
75629;BME280;64213;46.452;16.994;2024-02-21T06:34:27;100819.03;;;3.87;96.55
75629;BME280;64213;46.452;16.994;2024-02-21T06:37:35;100824.19;;;3.88;96.95
75629;BME280;64213;46.452;16.994;2024-02-21T06:40:38;100824.13;;;3.91;97.02
75629;BME280;64213;46.452;16.994;2024-02-21T06:43:42;100824.19;;;3.88;97.28
75629;BME280;64213;46.452;16.994;2024-02-21T06:46:45;100822.44;;;3.89;96.84
75629;BME280;64213;46.452;16.994;2024-02-21T06:49:51;100824.06;;;3.94;97.05
75629;BME280;64213;46.452;16.994;2024-02-21T06:52:53;100832.81;;;3.93;96.70
75629;BME280;64213;46.452;16.994;2024-02-21T06:55:56;100831.97;;;3.91;96.76
75629;BME280;64213;46.452;16.994;2024-02-21T06:58:58;100833.72;;;3.92;96.48
75629;BME280;64213;46.452;16.994;2024-02-21T07:02:01;100840.66;;;3.93;96.50
75629;BME280;64213;46.452;16.994;2024-02-21T07:05:03;100851.88;;;3.99;96.62
75629;BME280;64213;46.452;16.994;2024-02-21T07:08:07;100850.09;;;4.01;96.25
75629;BME280;64213;46.452;16.994;2024-02-21T07:11:10;100848.38;;;4.00;96.37
75629;BME280;64213;46.452;16.994;2024-02-21T07:14:16;100854.41;;;4.02;96.15
75629;BME280;64213;46.452;16.994;2024-02-21T07:17:18;100852.50;;;4.10;96.29
75629;BME280;64213;46.452;16.994;2024-02-21T07:20:20;100859.34;;;4.14;95.73
75629;BME280;64213;46.452;16.994;2024-02-21T07:23:23;100853.25;;;4.15;95.43
75629;BME280;64213;46.452;16.994;2024-02-21T07:26:26;100856.56;;;4.22;95.26
75629;BME280;64213;46.452;16.994;2024-02-21T07:29:29;100860.00;;;4.24;95.17
75629;BME280;64213;46.452;16.994;2024-02-21T07:32:31;100852.91;;;4.29;94.65
75629;BME280;64213;46.452;16.994;2024-02-21T07:35:33;100851.97;;;4.30;94.57
75629;BME280;64213;46.452;16.994;2024-02-21T07:38:36;100857.81;;;4.41;94.08
75629;BME280;64213;46.452;16.994;2024-02-21T07:41:39;100854.34;;;4.40;93.79
75629;BME280;64213;46.452;16.994;2024-02-21T07:44:43;100843.75;;;4.45;93.70
75629;BME280;64213;46.452;16.994;2024-02-21T07:47:45;100854.00;;;4.53;93.24
75629;BME280;64213;46.452;16.994;2024-02-21T07:50:48;100847.69;;;4.61;93.12
75629;BME280;64213;46.452;16.994;2024-02-21T07:53:51;100842.28;;;4.68;92.52
75629;BME280;64213;46.452;16.994;2024-02-21T07:56:53;100836.47;;;4.87;92.05
75629;BME280;64213;46.452;16.994;2024-02-21T07:59:56;100834.47;;;4.97;91.40
75629;BME280;64213;46.452;16.994;2024-02-21T08:02:59;100831.62;;;5.05;90.78
75629;BME280;64213;46.452;16.994;2024-02-21T08:06:02;100840.09;;;5.15;89.65
75629;BME280;64213;46.452;16.994;2024-02-21T08:09:05;100837.03;;;5.30;88.84
75629;BME280;64213;46.452;16.994;2024-02-21T08:12:08;100830.37;;;5.48;86.44
75629;BME280;64213;46.452;16.994;2024-02-21T08:15:10;100817.31;;;5.74;85.78
75629;BME280;64213;46.452;16.994;2024-02-21T08:18:14;100820.84;;;6.01;83.97
75629;BME280;64213;46.452;16.994;2024-02-21T08:21:17;100817.44;;;6.24;82.74
75629;BME280;64213;46.452;16.994;2024-02-21T08:24:19;100805.19;;;6.50;82.61
75629;BME280;64213;46.452;16.994;2024-02-21T08:27:22;100805.28;;;6.72;81.58
75629;BME280;64213;46.452;16.994;2024-02-21T08:30:25;100807.91;;;6.95;80.75
75629;BME280;64213;46.452;16.994;2024-02-21T08:33:27;100810.91;;;7.33;78.42
75629;BME280;64213;46.452;16.994;2024-02-21T08:36:33;100810.69;;;7.61;76.68
75629;BME280;64213;46.452;16.994;2024-02-21T08:39:35;100813.19;;;7.86;76.56
75629;BME280;64213;46.452;16.994;2024-02-21T08:42:39;100807.81;;;8.32;75.85
75629;BME280;64213;46.452;16.994;2024-02-21T08:45:42;100815.25;;;8.22;74.91
75629;BME280;64213;46.452;16.994;2024-02-21T08:48:44;100803.88;;;8.42;74.30
75629;BME280;64213;46.452;16.994;2024-02-21T08:51:50;100803.56;;;8.50;70.42
75629;BME280;64213;46.452;16.994;2024-02-21T08:54:52;100800.97;;;8.69;70.40
75629;BME280;64213;46.452;16.994;2024-02-21T08:57:55;100793.28;;;9.03;70.68
75629;BME280;64213;46.452;16.994;2024-02-21T09:00:58;100788.91;;;9.02;70.10
75629;BME280;64213;46.452;16.994;2024-02-21T09:04:01;100774.16;;;8.98;69.64
75629;BME280;64213;46.452;16.994;2024-02-21T09:07:05;100782.31;;;9.13;68.82
75629;BME280;64213;46.452;16.994;2024-02-21T09:10:08;100774.06;;;9.38;68.37
75629;BME280;64213;46.452;16.994;2024-02-21T09:13:10;100773.59;;;9.29;68.79
75629;BME280;64213;46.452;16.994;2024-02-21T09:16:13;100782.78;;;9.21;68.85
75629;BME280;64213;46.452;16.994;2024-02-21T09:19:16;100784.00;;;9.32;68.74
75629;BME280;64213;46.452;16.994;2024-02-21T09:22:18;100782.50;;;9.27;68.37
75629;BME280;64213;46.452;16.994;2024-02-21T09:25:21;100779.00;;;9.45;67.53
75629;BME280;64213;46.452;16.994;2024-02-21T09:28:23;100763.22;;;9.44;67.96
75629;BME280;64213;46.452;16.994;2024-02-21T09:31:26;100762.50;;;9.40;67.02
75629;BME280;64213;46.452;16.994;2024-02-21T09:34:29;100747.34;;;9.63;66.75
75629;BME280;64213;46.452;16.994;2024-02-21T09:37:32;100751.47;;;9.68;67.00
75629;BME280;64213;46.452;16.994;2024-02-21T09:40:35;100749.69;;;9.69;65.12
75629;BME280;64213;46.452;16.994;2024-02-21T09:43:41;100749.63;;;9.70;64.91
75629;BME280;64213;46.452;16.994;2024-02-21T09:47:03;100753.03;;;9.72;64.95
75629;BME280;64213;46.452;16.994;2024-02-21T09:50:09;100763.84;;;9.85;64.29
75629;BME280;64213;46.452;16.994;2024-02-21T09:53:12;100754.53;;;10.13;63.40
75629;BME280;64213;46.452;16.994;2024-02-21T09:56:18;100758.47;;;10.40;61.21
75629;BME280;64213;46.452;16.994;2024-02-21T09:59:22;100762.47;;;10.13;60.74
75629;BME280;64213;46.452;16.994;2024-02-21T10:02:26;100761.47;;;10.33;61.26
75629;BME280;64213;46.452;16.994;2024-02-21T10:05:28;100756.28;;;10.82;59.29
75629;BME280;64213;46.452;16.994;2024-02-21T10:08:31;100749.66;;;11.22;57.23
75629;BME280;64213;46.452;16.994;2024-02-21T10:11:34;100751.16;;;11.90;55.81
75629;BME280;64213;46.452;16.994;2024-02-21T10:14:38;100752.97;;;12.19;54.64
75629;BME280;64213;46.452;16.994;2024-02-21T10:17:41;100749.50;;;12.47;52.50
75629;BME280;64213;46.452;16.994;2024-02-21T10:20:44;100744.66;;;12.25;52.70
75629;BME280;64213;46.452;16.994;2024-02-21T10:23:50;100749.91;;;12.11;52.97
75629;BME280;64213;46.452;16.994;2024-02-21T10:27:06;100736.50;;;12.28;52.53
75629;BME280;64213;46.452;16.994;2024-02-21T10:30:14;100730.06;;;12.47;51.42
75629;BME280;64213;46.452;16.994;2024-02-21T10:33:17;100725.22;;;12.82;51.08
75629;BME280;64213;46.452;16.994;2024-02-21T10:36:25;100722.06;;;13.18;50.76
75629;BME280;64213;46.452;16.994;2024-02-21T10:39:29;100708.34;;;14.06;48.24
75629;BME280;64213;46.452;16.994;2024-02-21T10:42:37;100700.91;;;15.00;43.74
75629;BME280;64213;46.452;16.994;2024-02-21T10:45:41;100695.94;;;14.70;45.40
75629;BME280;64213;46.452;16.994;2024-02-21T10:48:44;100691.66;;;14.16;45.89
75629;BME280;64213;46.452;16.994;2024-02-21T10:51:48;100689.31;;;13.99;45.77
75629;BME280;64213;46.452;16.994;2024-02-21T10:54:55;100690.38;;;14.86;42.87
75629;BME280;64213;46.452;16.994;2024-02-21T10:57:59;100689.06;;;15.04;41.84
75629;BME280;64213;46.452;16.994;2024-02-21T11:01:02;100675.19;;;15.84;40.83
75629;BME280;64213;46.452;16.994;2024-02-21T11:04:07;100654.16;;;16.93;38.59
75629;BME280;64213;46.452;16.994;2024-02-21T11:07:10;100646.66;;;16.76;38.18
75629;BME280;64213;46.452;16.994;2024-02-21T11:10:24;100640.94;;;16.81;38.78
75629;BME280;64213;46.452;16.994;2024-02-21T11:13:31;100638.62;;;16.99;37.05
75629;BME280;64213;46.452;16.994;2024-02-21T11:16:39;100631.34;;;17.65;36.04
75629;BME280;64213;46.452;16.994;2024-02-21T11:19:42;100631.78;;;17.38;36.18
75629;BME280;64213;46.452;16.994;2024-02-21T11:22:46;100630.53;;;17.53;36.58
75629;BME280;64213;46.452;16.994;2024-02-21T11:25:50;100621.31;;;17.46;36.93
75629;BME280;64213;46.452;16.994;2024-02-21T11:29:05;100607.72;;;17.91;35.99
75629;BME280;64213;46.452;16.994;2024-02-21T11:32:10;100610.59;;;18.30;34.89
75629;BME280;64213;46.452;16.994;2024-02-21T11:35:19;100605.28;;;18.40;34.67
75629;BME280;64213;46.452;16.994;2024-02-21T11:38:22;100599.66;;;18.12;35.67
75629;BME280;64213;46.452;16.994;2024-02-21T11:41:25;100598.69;;;18.84;34.19
75629;BME280;64213;46.452;16.994;2024-02-21T11:44:27;100589.63;;;17.62;34.98
75629;BME280;64213;46.452;16.994;2024-02-21T11:47:30;100595.91;;;17.52;33.90
75629;BME280;64213;46.452;16.994;2024-02-21T11:50:34;100593.25;;;18.24;33.36
75629;BME280;64213;46.452;16.994;2024-02-21T11:53:37;100589.56;;;16.77;35.67
75629;BME280;64213;46.452;16.994;2024-02-21T11:56:51;100586.53;;;16.82;35.98
75629;BME280;64213;46.452;16.994;2024-02-21T11:59:54;100580.31;;;16.92;34.23
75629;BME280;64213;46.452;16.994;2024-02-21T12:03:01;100559.59;;;17.17;34.67
75629;BME280;64213;46.452;16.994;2024-02-21T12:06:06;100552.41;;;17.38;33.00
75629;BME280;64213;46.452;16.994;2024-02-21T12:09:09;100548.69;;;18.23;32.57
75629;BME280;64213;46.452;16.994;2024-02-21T12:12:12;100544.22;;;18.33;32.22
75629;BME280;64213;46.452;16.994;2024-02-21T12:15:15;100542.16;;;18.06;31.79
75629;BME280;64213;46.452;16.994;2024-02-21T12:18:17;100535.41;;;18.12;30.51
75629;BME280;64213;46.452;16.994;2024-02-21T12:21:26;100528.28;;;18.22;30.74
75629;BME280;64213;46.452;16.994;2024-02-21T12:24:30;100518.84;;;18.97;30.16
75629;BME280;64213;46.452;16.994;2024-02-21T12:27:33;100521.41;;;19.09;30.33
75629;BME280;64213;46.452;16.994;2024-02-21T12:30:36;100511.03;;;20.37;28.40
75629;BME280;64213;46.452;16.994;2024-02-21T12:33:45;100517.34;;;19.81;29.88
75629;BME280;64213;46.452;16.994;2024-02-21T12:36:47;100498.50;;;19.14;30.24
75629;BME280;64213;46.452;16.994;2024-02-21T12:39:50;100500.59;;;19.40;29.57
75629;BME280;64213;46.452;16.994;2024-02-21T12:42:53;100491.53;;;18.63;30.67
75629;BME280;64213;46.452;16.994;2024-02-21T12:45:55;100485.22;;;18.04;31.10
75629;BME280;64213;46.452;16.994;2024-02-21T12:48:58;100483.38;;;17.74;31.81
75629;BME280;64213;46.452;16.994;2024-02-21T12:52:00;100472.91;;;17.40;32.25
75629;BME280;64213;46.452;16.994;2024-02-21T12:55:03;100474.84;;;17.59;31.58
75629;BME280;64213;46.452;16.994;2024-02-21T12:58:06;100461.97;;;17.74;32.19
75629;BME280;64213;46.452;16.994;2024-02-21T13:01:09;100443.22;;;18.74;31.52
75629;BME280;64213;46.452;16.994;2024-02-21T13:04:12;100439.97;;;18.80;30.62
75629;BME280;64213;46.452;16.994;2024-02-21T13:07:14;100429.87;;;18.24;31.70
75629;BME280;64213;46.452;16.994;2024-02-21T13:10:17;100441.31;;;19.23;31.39
75629;BME280;64213;46.452;16.994;2024-02-21T13:13:21;100428.50;;;18.49;33.16
75629;BME280;64213;46.452;16.994;2024-02-21T13:16:23;100420.84;;;17.75;34.15
75629;BME280;64213;46.452;16.994;2024-02-21T13:19:29;100419.06;;;17.55;35.26
75629;BME280;64213;46.452;16.994;2024-02-21T13:22:31;100417.38;;;17.54;34.93
75629;BME280;64213;46.452;16.994;2024-02-21T13:25:34;100406.97;;;16.56;36.57
75629;BME280;64213;46.452;16.994;2024-02-21T13:28:36;100398.62;;;16.49;37.23
75629;BME280;64213;46.452;16.994;2024-02-21T13:31:39;100402.84;;;16.63;37.30
75629;BME280;64213;46.452;16.994;2024-02-21T13:34:42;100401.94;;;16.85;36.98
75629;BME280;64213;46.452;16.994;2024-02-21T13:37:44;100389.59;;;16.93;36.37
75629;BME280;64213;46.452;16.994;2024-02-21T13:40:47;100398.38;;;17.26;36.15
75629;BME280;64213;46.452;16.994;2024-02-21T13:43:49;100409.38;;;15.83;38.40
75629;BME280;64213;46.452;16.994;2024-02-21T13:46:52;100399.22;;;16.20;37.88
75629;BME280;64213;46.452;16.994;2024-02-21T13:49:55;100389.84;;;16.37;37.68
75629;BME280;64213;46.452;16.994;2024-02-21T13:52:58;100395.88;;;17.34;36.00
75629;BME280;64213;46.452;16.994;2024-02-21T13:56:01;100378.81;;;16.63;37.46
75629;BME280;64213;46.452;16.994;2024-02-21T13:59:03;100374.34;;;17.05;37.05
75629;BME280;64213;46.452;16.994;2024-02-21T14:02:07;100380.44;;;16.75;37.83
75629;BME280;64213;46.452;16.994;2024-02-21T14:05:10;100375.53;;;16.27;37.97
75629;BME280;64213;46.452;16.994;2024-02-21T14:08:13;100380.91;;;16.80;37.54
75629;BME280;64213;46.452;16.994;2024-02-21T14:11:17;100377.53;;;17.20;36.67
75629;BME280;64213;46.452;16.994;2024-02-21T14:14:20;100376.28;;;17.24;36.70
75629;BME280;64213;46.452;16.994;2024-02-21T14:17:23;100366.69;;;16.26;38.07
75629;BME280;64213;46.452;16.994;2024-02-21T14:20:26;100365.31;;;16.43;37.67
75629;BME280;64213;46.452;16.994;2024-02-21T14:23:29;100359.75;;;16.88;37.35
75629;BME280;64213;46.452;16.994;2024-02-21T14:26:32;100359.75;;;17.80;36.01
75629;BME280;64213;46.452;16.994;2024-02-21T14:29:34;100364.16;;;16.78;37.29
75629;BME280;64213;46.452;16.994;2024-02-21T14:32:37;100353.34;;;15.83;38.40
75629;BME280;64213;46.452;16.994;2024-02-21T14:35:40;100346.34;;;16.14;38.08
75629;BME280;64213;46.452;16.994;2024-02-21T14:38:44;100346.56;;;16.22;38.00
75629;BME280;64213;46.452;16.994;2024-02-21T14:41:46;100348.56;;;15.98;38.01
75629;BME280;64213;46.452;16.994;2024-02-21T14:44:49;100354.34;;;15.71;38.51
75629;BME280;64213;46.452;16.994;2024-02-21T14:47:51;100341.09;;;15.47;39.17
75629;BME280;64213;46.452;16.994;2024-02-21T14:50:54;100336.03;;;15.32;39.29
75629;BME280;64213;46.452;16.994;2024-02-21T14:53:56;100334.09;;;15.46;39.17
75629;BME280;64213;46.452;16.994;2024-02-21T14:56:59;100322.44;;;15.58;39.13
75629;BME280;64213;46.452;16.994;2024-02-21T15:00:01;100314.34;;;15.15;40.18
75629;BME280;64213;46.452;16.994;2024-02-21T15:03:06;100316.00;;;14.11;41.98
75629;BME280;64213;46.452;16.994;2024-02-21T15:06:09;100316.94;;;13.62;42.72
75629;BME280;64213;46.452;16.994;2024-02-21T15:09:11;100317.75;;;13.39;43.73
75629;BME280;64213;46.452;16.994;2024-02-21T15:12:16;100312.75;;;13.21;43.82
75629;BME280;64213;46.452;16.994;2024-02-21T15:15:19;100308.53;;;13.06;44.16
75629;BME280;64213;46.452;16.994;2024-02-21T15:18:21;100307.87;;;13.15;44.22
75629;BME280;64213;46.452;16.994;2024-02-21T15:21:24;100309.59;;;13.03;44.43
75629;BME280;64213;46.452;16.994;2024-02-21T15:24:26;100306.19;;;12.89;44.85
75629;BME280;64213;46.452;16.994;2024-02-21T15:27:29;100314.47;;;12.84;44.80
75629;BME280;64213;46.452;16.994;2024-02-21T15:30:31;100319.78;;;12.84;45.05
75629;BME280;64213;46.452;16.994;2024-02-21T15:33:34;100310.66;;;12.75;45.13
75629;BME280;64213;46.452;16.994;2024-02-21T15:36:40;100308.19;;;12.72;45.10
75629;BME280;64213;46.452;16.994;2024-02-21T15:39:42;100305.75;;;12.69;45.89
75629;BME280;64213;46.452;16.994;2024-02-21T15:42:48;100302.25;;;12.56;46.32
75629;BME280;64213;46.452;16.994;2024-02-21T15:45:50;100307.44;;;12.45;46.27
75629;BME280;64213;46.452;16.994;2024-02-21T15:48:52;100300.19;;;12.34;46.63
75629;BME280;64213;46.452;16.994;2024-02-21T15:51:57;100293.41;;;12.30;47.05
75629;BME280;64213;46.452;16.994;2024-02-21T15:58:57;100294.22;;;12.18;47.55
75629;BME280;64213;46.452;16.994;2024-02-21T16:02:00;100277.87;;;12.11;48.29
75629;BME280;64213;46.452;16.994;2024-02-21T16:05:03;100267.03;;;12.01;48.94
75629;BME280;64213;46.452;16.994;2024-02-21T16:08:11;100259.59;;;11.94;49.08
75629;BME280;64213;46.452;16.994;2024-02-21T16:11:14;100260.19;;;11.84;49.32
75629;BME280;64213;46.452;16.994;2024-02-21T16:14:23;100264.06;;;11.79;49.79
75629;BME280;64213;46.452;16.994;2024-02-21T16:17:32;100258.59;;;11.68;50.13